Galati 4 — YQGQ — position and weather

sailwx.info

Track history (hours):
 
Tides and Currents Weather Stations Pressure Air Temp Water Temp Dewpoint Dewpoint Depression Visibility Wind Speed Wind Dir Waves Ship Positions

Galati 4

Last reported at 2017-Dec-17 04:01 UTC. Time now 2017-Dec-17 04:18 UTC.
Position N 44°21' E 028°41'.

Length 36 m; draft 2.2 m.

MMSI: 264900046.

Date/timePositionNaut miles runAvg speedWind from/ knotsBaromVisibWave heightAir tempDewpointWater temp
2017-Dec-17 04:01N 44°21' E 028°41'0 0.0
2017-Dec-17 03:30N 44°21' E 028°41'0 0.0
2017-Dec-17 03:00N 44°21' E 028°41'0 0.0
2017-Dec-17 02:30N 44°21' E 028°41'0 0.0
2017-Dec-17 02:01N 44°21' E 028°41'0 0.0
2017-Dec-17 01:30N 44°21' E 028°41'0 0.0
2017-Dec-17 01:01N 44°21' E 028°41'0 0.0
2017-Dec-17 00:30N 44°21' E 028°41'0 0.0
2017-Dec-17 00:00N 44°21' E 028°41'0 0.0
2017-Dec-16 23:31N 44°21' E 028°41'0 0.0
2017-Dec-16 23:00N 44°21' E 028°41'0 0.0
2017-Dec-16 22:30N 44°21' E 028°41'0 0.0
2017-Dec-16 22:00N 44°21' E 028°41'0 0.0
2017-Dec-16 21:30N 44°21' E 028°41'0 0.0
2017-Dec-16 21:01N 44°21' E 028°41'0 0.0
2017-Dec-16 20:30N 44°21' E 028°41'0 0.0
2017-Dec-16 20:00N 44°21' E 028°41'0 0.0
2017-Dec-16 19:30N 44°21' E 028°41'0 0.0
2017-Dec-16 19:00N 44°21' E 028°41'0 0.0
2017-Dec-16 18:30N 44°21' E 028°41'0 0.0
2017-Dec-16 18:00N 44°21' E 028°41'0 0.2
2017-Dec-16 17:30N 44°20' E 028°41'0 0.2
2017-Dec-16 17:00N 44°21' E 028°41'0 0.0
2017-Dec-16 16:30N 44°21' E 028°41'0 0.0
2017-Dec-16 16:01N 44°21' E 028°41'0 0.0
2017-Dec-16 15:31N 44°21' E 028°41'0 0.0
2017-Dec-16 15:00N 44°21' E 028°41'0 0.0
2017-Dec-16 14:31N 44°21' E 028°41'0 0.0
2017-Dec-16 14:01N 44°21' E 028°41'0 0.0
2017-Dec-16 13:31N 44°21' E 028°41'0 0.0
2017-Dec-16 13:00N 44°21' E 028°41'0 0.0
2017-Dec-16 12:31N 44°21' E 028°41'1 1.1
2017-Dec-16 12:01N 44°20' E 028°41'0 0.8
2017-Dec-16 11:30N 44°20' E 028°41'0 0.4
2017-Dec-16 11:00N 44°20' E 028°41'1 1.9
2017-Dec-16 10:30N 44°19' E 028°42'4 7.3
2017-Dec-16 10:01N 44°15' E 028°42'4 7.9
2017-Dec-16 09:30N 44°11' E 028°43'4 7.8
2017-Dec-16 09:01N 44°08' E 028°43'1 2.5
2017-Dec-16 08:31N 44°07' E 028°42'3 6.0
2017-Dec-16 08:00N 44°10' E 028°40'0 0.0
2017-Dec-16 07:31N 44°10' E 028°40'0 0.0
2017-Dec-16 07:00N 44°10' E 028°40'0 0.0
2017-Dec-16 06:31N 44°10' E 028°40'0 0.0
2017-Dec-16 06:01N 44°10' E 028°40'0 0.0
2017-Dec-16 05:31N 44°10' E 028°40'0 0.0
2017-Dec-16 05:00N 44°10' E 028°40'0 0.0
2017-Dec-16 04:30N 44°10' E 028°40'0 0.0
2017-Dec-16 04:00N 44°10' E 028°40'0 0.0
2017-Dec-16 03:31N 44°10' E 028°40'0 0.0
2017-Dec-16 03:01N 44°10' E 028°40'0 0.0
2017-Dec-16 02:30N 44°10' E 028°40'0 0.0
2017-Dec-16 02:00N 44°10' E 028°40'0 0.0
2017-Dec-16 01:31N 44°10' E 028°40'0 0.0
2017-Dec-16 01:00N 44°10' E 028°40'0 0.0
2017-Dec-16 00:31N 44°10' E 028°40'0 0.0
2017-Dec-16 00:00N 44°10' E 028°40'0 0.0
2017-Dec-15 23:31N 44°10' E 028°40'0 0.0
2017-Dec-15 23:01N 44°10' E 028°40'0 0.0
2017-Dec-15 22:31N 44°10' E 028°40'0 0.0
2017-Dec-15 22:00N 44°10' E 028°40'0 0.0
2017-Dec-15 21:30N 44°10' E 028°40'0 0.0
2017-Dec-15 21:00N 44°10' E 028°40'0 0.0
2017-Dec-15 20:30N 44°10' E 028°40'0 0.0
2017-Dec-15 20:01N 44°10' E 028°40'0 0.0
2017-Dec-15 19:30N 44°10' E 028°40'0 0.0
2017-Dec-15 19:00N 44°10' E 028°40'0 0.0
2017-Dec-15 18:30N 44°10' E 028°40'0 0.0
2017-Dec-15 18:01N 44°10' E 028°40'0 0.0
2017-Dec-15 17:31N 44°10' E 028°40'0 0.0
2017-Dec-15 17:00N 44°10' E 028°40'0 0.0
2017-Dec-15 16:30N 44°10' E 028°40'0 0.0
2017-Dec-15 16:00N 44°10' E 028°40'0 0.0
2017-Dec-15 15:31N 44°10' E 028°40'0 0.0
2017-Dec-15 15:01N 44°10' E 028°40'0 0.0
2017-Dec-15 14:31N 44°10' E 028°40'0 0.0
2017-Dec-15 14:00N 44°10' E 028°40'0 0.0
2017-Dec-15 13:31N 44°10' E 028°40'0 0.0
2017-Dec-15 13:01N 44°10' E 028°40'0 0.0
2017-Dec-15 12:31N 44°10' E 028°40'0 0.0
2017-Dec-15 12:00N 44°10' E 028°40'0 0.0
2017-Dec-15 11:31N 44°10' E 028°40'0 0.0
2017-Dec-15 11:01N 44°10' E 028°40'0 0.0
2017-Dec-15 10:30N 44°10' E 028°40'0 0.0
2017-Dec-15 10:01N 44°10' E 028°40'0 0.0
2017-Dec-15 09:30N 44°10' E 028°40'0 0.0
2017-Dec-15 09:01N 44°10' E 028°40'0 0.0
2017-Dec-15 08:30N 44°10' E 028°40'0 0.0
2017-Dec-15 08:00N 44°10' E 028°40'0 0.0
2017-Dec-15 07:30N 44°10' E 028°40'0 0.0
2017-Dec-15 07:01N 44°10' E 028°40'0 0.0
2017-Dec-15 06:31N 44°10' E 028°40'0 0.0
2017-Dec-15 06:01N 44°10' E 028°40'0 0.0
2017-Dec-15 05:30N 44°10' E 028°40'0 0.0
2017-Dec-15 05:01N 44°10' E 028°40'0 0.0
2017-Dec-15 04:30N 44°10' E 028°40'0 0.0
2017-Dec-15 04:00N 44°10' E 028°40'0 0.0
2017-Dec-15 02:30N 44°10' E 028°40'0 0.0
2017-Dec-15 01:01N 44°10' E 028°40'0 0.0
2017-Dec-15 00:31N 44°10' E 028°40'0 0.0
2017-Dec-14 18:30N 44°10' E 028°40'0 0.0
2017-Dec-14 18:01N 44°10' E 028°40'0 0.0
2017-Dec-14 17:30N 44°10' E 028°40'0 0.0
2017-Dec-14 17:00N 44°10' E 028°40'0 0.0
2017-Dec-14 16:30N 44°10' E 028°40'0 0.0
2017-Dec-14 16:01N 44°10' E 028°40'0 0.0
2017-Dec-14 15:01N 44°10' E 028°40'0 0.0
2017-Dec-14 14:30N 44°10' E 028°40'0 0.0
2017-Dec-14 14:01N 44°10' E 028°40'0 0.0
2017-Dec-14 13:30N 44°10' E 028°40'0 0.0
2017-Dec-14 13:00N 44°10' E 028°40'0 0.0
2017-Dec-14 12:31N 44°10' E 028°40'0 0.0
2017-Dec-14 12:00N 44°10' E 028°40'0 0.0
2017-Dec-14 11:30N 44°10' E 028°40'0 0.0
2017-Dec-14 11:00N 44°10' E 028°40'0 0.0
2017-Dec-14 10:31N 44°10' E 028°40'0 0.0
2017-Dec-14 10:01N 44°10' E 028°40'0 0.0
2017-Dec-14 09:31N 44°10' E 028°40'0 0.0
2017-Dec-14 09:00N 44°10' E 028°40'0 0.0
2017-Dec-14 08:31N 44°10' E 028°40'0 0.0
2017-Dec-14 08:00N 44°10' E 028°40'0 0.0
2017-Dec-14 07:31N 44°10' E 028°40'0 0.0
2017-Dec-14 07:00N 44°10' E 028°40'0 0.0
2017-Dec-14 06:31N 44°10' E 028°40'0 0.0
2017-Dec-14 06:01N 44°10' E 028°40'0 0.0
2017-Dec-14 05:31N 44°10' E 028°40'0 0.0
2017-Dec-14 05:00N 44°10' E 028°40'0 0.0
2017-Dec-14 04:31N 44°10' E 028°40'0 0.0
2017-Dec-14 04:00N 44°10' E 028°40'0 0.0
2017-Dec-14 03:30N 44°10' E 028°40'0 0.0
2017-Dec-14 03:00N 44°10' E 028°40'0 0.0
2017-Dec-14 02:30N 44°10' E 028°40'0 0.0
2017-Dec-14 02:01N 44°10' E 028°40'0 0.0
2017-Dec-14 01:30N 44°10' E 028°40'0 0.0
2017-Dec-14 01:01N 44°10' E 028°40'0 0.0
2017-Dec-14 00:30N 44°10' E 028°40'0 0.0
2017-Dec-14 00:00N 44°10' E 028°40'0 0.0
2017-Dec-13 23:30N 44°10' E 028°40'0 0.0
2017-Dec-13 23:00N 44°10' E 028°40'0 0.0
2017-Dec-13 22:30N 44°10' E 028°40'0 0.0
2017-Dec-13 22:01N 44°10' E 028°40'0 0.0
2017-Dec-13 21:31N 44°10' E 028°40'0 0.0
2017-Dec-13 21:00N 44°10' E 028°40'0 0.0
2017-Dec-13 20:31N 44°10' E 028°40'0 0.0
2017-Dec-13 20:00N 44°10' E 028°40'0 0.0
2017-Dec-13 19:31N 44°10' E 028°40'0 0.0
2017-Dec-13 19:00N 44°10' E 028°40'0 0.0
2017-Dec-13 18:31N 44°10' E 028°40'0 0.0
2017-Dec-13 18:00N 44°10' E 028°40'0 0.0
2017-Dec-13 17:30N 44°10' E 028°40'0 0.0
2017-Dec-13 17:00N 44°10' E 028°40'0 0.0
2017-Dec-13 16:31N 44°10' E 028°40'0 0.0
2017-Dec-13 16:01N 44°10' E 028°40'0 0.0
2017-Dec-13 15:31N 44°10' E 028°40'0 0.0
2017-Dec-13 15:00N 44°10' E 028°40'0 0.0
2017-Dec-13 14:30N 44°10' E 028°40'0 0.0
2017-Dec-13 14:00N 44°10' E 028°40'0 0.0
2017-Dec-13 13:30N 44°10' E 028°40'0 0.0
2017-Dec-13 13:01N 44°10' E 028°40'0 0.0
2017-Dec-13 12:30N 44°10' E 028°40'0 0.0
2017-Dec-13 12:01N 44°10' E 028°40'0 0.0
2017-Dec-13 11:31N 44°10' E 028°40'0 0.0
2017-Dec-13 11:01N 44°10' E 028°40'0 0.0
2017-Dec-13 10:30N 44°10' E 028°40'0 0.0
2017-Dec-13 10:01N 44°10' E 028°40'0 0.0
2017-Dec-13 09:30N 44°10' E 028°40'0 0.0
2017-Dec-13 09:00N 44°10' E 028°40'0 0.0
2017-Dec-13 08:31N 44°10' E 028°40'0 0.0
2017-Dec-13 08:00N 44°10' E 028°40'0 0.0
2017-Dec-13 06:55N 44°10' E 028°40'0 0.0
2017-Dec-13 06:30N 44°10' E 028°40'0 0.0
2017-Dec-13 06:00N 44°10' E 028°40'0 0.0
2017-Dec-13 05:30N 44°10' E 028°40'0 0.0
2017-Dec-13 05:00N 44°10' E 028°40'0 0.0
2017-Dec-13 04:30N 44°10' E 028°40'0 0.0
2017-Dec-13 04:00N 44°10' E 028°40'0 0.0
2017-Dec-13 03:30N 44°10' E 028°40'0 0.0
2017-Dec-13 03:00N 44°10' E 028°40'0 0.0
2017-Dec-13 02:30N 44°10' E 028°40'0 0.0
2017-Dec-13 02:00N 44°10' E 028°40'0 0.0
2017-Dec-13 01:30N 44°10' E 028°40'0 0.0
2017-Dec-13 01:00N 44°10' E 028°40'0 0.0
2017-Dec-13 00:30N 44°10' E 028°40'0 0.0
2017-Dec-13 00:00N 44°10' E 028°40'0 0.0
2017-Dec-12 23:30N 44°10' E 028°40'0 0.0
2017-Dec-12 23:00N 44°10' E 028°40'0 0.0
2017-Dec-12 22:30N 44°10' E 028°40'0 0.0
2017-Dec-12 22:00N 44°10' E 028°40'0 0.0
2017-Dec-12 21:30N 44°10' E 028°40'0 0.0
2017-Dec-12 21:00N 44°10' E 028°40'0 0.0
2017-Dec-12 20:30N 44°10' E 028°40'0 0.0
2017-Dec-12 20:00N 44°10' E 028°40'0 0.0
2017-Dec-12 19:30N 44°10' E 028°40'0 0.0
2017-Dec-12 19:00N 44°10' E 028°40'0 0.0
2017-Dec-12 18:30N 44°10' E 028°40'0 0.0
2017-Dec-12 18:00N 44°10' E 028°40'0 0.0
2017-Dec-12 17:30N 44°10' E 028°40'0 0.0
2017-Dec-12 17:00N 44°10' E 028°40'0 0.0
2017-Dec-12 16:30N 44°10' E 028°40'0 0.0
2017-Dec-12 16:00N 44°10' E 028°40'0 0.0
2017-Dec-12 15:30N 44°10' E 028°40'0 0.0
2017-Dec-12 15:00N 44°10' E 028°40'0 0.0
2017-Dec-12 14:30N 44°10' E 028°40'0 0.0
2017-Dec-12 14:00N 44°10' E 028°40'0 0.0
2017-Dec-12 13:30N 44°10' E 028°40'0 0.0
2017-Dec-12 13:00N 44°10' E 028°40'0 0.0
2017-Dec-12 12:30N 44°10' E 028°40'0 0.0
2017-Dec-12 12:00N 44°10' E 028°40'0 0.0
2017-Dec-12 11:30N 44°10' E 028°40'0 0.0
2017-Dec-12 11:00N 44°10' E 028°40'0 0.0
2017-Dec-12 10:30N 44°10' E 028°40'0 0.0
2017-Dec-12 10:00N 44°10' E 028°40'0 0.0
2017-Dec-12 09:30N 44°10' E 028°40'0 0.0
2017-Dec-12 09:00N 44°10' E 028°40'0 0.0
2017-Dec-12 08:30N 44°10' E 028°40'0 0.0
2017-Dec-12 08:00N 44°10' E 028°40'0 0.0
2017-Dec-12 07:30N 44°10' E 028°40'0 0.0
2017-Dec-12 07:00N 44°10' E 028°40'0 0.0
2017-Dec-12 06:30N 44°10' E 028°40'0 0.0
2017-Dec-12 06:00N 44°10' E 028°40'0 0.0
2017-Dec-12 05:30N 44°10' E 028°40'0 0.0
2017-Dec-12 05:00N 44°10' E 028°40'0 0.0
2017-Dec-12 04:30N 44°10' E 028°40'0 0.0
2017-Dec-12 04:00N 44°10' E 028°40'0 0.0
2017-Dec-12 03:30N 44°10' E 028°40'0 0.0
2017-Dec-12 03:00N 44°10' E 028°40'0 0.0
2017-Dec-12 02:30N 44°10' E 028°40'0 0.0
2017-Dec-12 02:00N 44°10' E 028°40'0 0.0
2017-Dec-12 01:30N 44°10' E 028°40'0 0.0
2017-Dec-12 01:00N 44°10' E 028°40'0 0.0
2017-Dec-12 00:30N 44°10' E 028°40'0 0.0
2017-Dec-12 00:00N 44°10' E 028°40'0 0.0
2017-Dec-11 23:30N 44°10' E 028°40'0 0.0
2017-Dec-11 23:00N 44°10' E 028°40'0 0.0
2017-Dec-11 22:30N 44°10' E 028°40'0 0.0
2017-Dec-11 22:00N 44°10' E 028°40'0 0.0
2017-Dec-11 21:30N 44°10' E 028°40'0 0.0
2017-Dec-11 21:00N 44°10' E 028°40'0 0.0
2017-Dec-11 20:30N 44°10' E 028°40'0 0.0
2017-Dec-11 20:00N 44°10' E 028°40'0 0.0
2017-Dec-11 19:30N 44°10' E 028°40'0 0.0
2017-Dec-11 19:00N 44°10' E 028°40'0 0.0
2017-Dec-11 18:30N 44°10' E 028°40'0 0.0
2017-Dec-11 18:00N 44°10' E 028°40'0 0.0
2017-Dec-11 17:30N 44°10' E 028°40'0 0.0
2017-Dec-11 17:00N 44°10' E 028°40'0 0.0
2017-Dec-11 16:30N 44°10' E 028°40'0 0.0
2017-Dec-11 16:00N 44°10' E 028°40'0 0.0
2017-Dec-11 15:30N 44°10' E 028°40'0 0.0
2017-Dec-11 15:00N 44°10' E 028°40'0 0.0
2017-Dec-11 14:30N 44°10' E 028°40'0 0.0
2017-Dec-11 14:00N 44°10' E 028°40'0 0.0
2017-Dec-11 13:30N 44°10' E 028°40'0 0.0
2017-Dec-11 12:43N 44°10' E 028°40'0 0.0
2017-Dec-11 12:31N 44°10' E 028°40'0 0.0
2017-Dec-11 12:00N 44°10' E 028°40'0 0.0
2017-Dec-11 11:31N 44°10' E 028°40'0 0.0
2017-Dec-11 11:00N 44°10' E 028°40'0 0.0
2017-Dec-11 10:30N 44°10' E 028°40'0 0.0
2017-Dec-11 10:01N 44°10' E 028°40'0 0.0
2017-Dec-11 09:30N 44°10' E 028°40'0 0.0
2017-Dec-11 09:00N 44°10' E 028°40'0 0.0
2017-Dec-11 08:30N 44°10' E 028°40'0 0.0
2017-Dec-11 08:00N 44°10' E 028°40'0 0.0
2017-Dec-11 07:31N 44°10' E 028°40'0 0.0
2017-Dec-11 07:01N 44°10' E 028°40'0 0.0
2017-Dec-11 06:30N 44°10' E 028°40'0 0.0
2017-Dec-11 06:01N 44°10' E 028°40'0 0.0
2017-Dec-11 05:31N 44°10' E 028°40'0 0.0
2017-Dec-11 05:00N 44°10' E 028°40'0 0.0
2017-Dec-11 04:31N 44°10' E 028°40'0 0.0
2017-Dec-11 04:00N 44°10' E 028°40'0 0.0
2017-Dec-11 03:30N 44°10' E 028°40'0 0.0
2017-Dec-11 03:01N 44°10' E 028°40'0 0.0
2017-Dec-11 02:31N 44°10' E 028°40'0 0.0
2017-Dec-11 02:00N 44°10' E 028°40'0 0.0
2017-Dec-11 01:30N 44°10' E 028°40'0 0.0
2017-Dec-11 01:01N 44°10' E 028°40'0 0.0
2017-Dec-11 00:31N 44°10' E 028°40'0 0.0
2017-Dec-11 00:01N 44°10' E 028°40'0 0.0
2017-Dec-10 23:30N 44°10' E 028°40'0 0.0
2017-Dec-10 23:01N 44°10' E 028°40'0 0.0
2017-Dec-10 22:31N 44°10' E 028°40'0 0.0
2017-Dec-10 22:01N 44°10' E 028°40'0 0.0
2017-Dec-10 21:31N 44°10' E 028°40'0 0.0
2017-Dec-10 21:00N 44°10' E 028°40'0 0.0
2017-Dec-10 20:31N 44°10' E 028°40'0 0.0
2017-Dec-10 20:01N 44°10' E 028°40'0 0.0
2017-Dec-10 19:30N 44°10' E 028°40'0 0.0
2017-Dec-10 19:01N 44°10' E 028°40'0 0.0
2017-Dec-10 18:30N 44°10' E 028°40'0 0.0
2017-Dec-10 18:00N 44°10' E 028°40'0 0.0
2017-Dec-10 17:30N 44°10' E 028°40'0 0.0
2017-Dec-10 17:00N 44°10' E 028°40'0 0.0
2017-Dec-10 16:31N 44°10' E 028°40'0 0.0
2017-Dec-10 16:00N 44°10' E 028°40'0 0.0
2017-Dec-10 15:30N 44°10' E 028°40'0 0.0
2017-Dec-10 15:00N 44°10' E 028°40'0 0.0
2017-Dec-10 14:31N 44°10' E 028°40'0 0.0
2017-Dec-10 14:00N 44°10' E 028°40'0 0.0
2017-Dec-10 13:31N 44°10' E 028°40'0 0.0
2017-Dec-10 13:01N 44°10' E 028°40'0 0.0
2017-Dec-10 12:30N 44°10' E 028°40'0 0.0
2017-Dec-10 12:00N 44°10' E 028°40'0 0.0
2017-Dec-10 11:31N 44°10' E 028°40'0 0.0
2017-Dec-10 11:01N 44°10' E 028°40'0 0.0
2017-Dec-10 10:30N 44°10' E 028°40'0 0.0
2017-Dec-10 10:00N 44°10' E 028°40'0 0.0
2017-Dec-10 09:30N 44°10' E 028°40'0 0.0
2017-Dec-10 09:00N 44°10' E 028°40'0 0.0
2017-Dec-10 08:31N 44°10' E 028°40'0 0.0
2017-Dec-10 08:00N 44°10' E 028°40'0 0.0
2017-Dec-10 07:30N 44°10' E 028°40'0 0.0
2017-Dec-10 07:00N 44°10' E 028°40'0 0.0
2017-Dec-10 06:31N 44°10' E 028°40'0 0.0
2017-Dec-10 06:01N 44°10' E 028°40'0 0.0
2017-Dec-10 05:31N 44°10' E 028°40'0 0.0
2017-Dec-10 05:00N 44°10' E 028°40'0 0.0
2017-Dec-10 04:31N 44°10' E 028°40'0 0.0
2017-Dec-10 04:01N 44°10' E 028°40'0 0.0
2017-Dec-10 03:31N 44°10' E 028°40'0 0.0
2017-Dec-10 03:01N 44°10' E 028°40'0 0.0
2017-Dec-10 02:31N 44°10' E 028°40'0 0.0
2017-Dec-10 02:00N 44°10' E 028°40'0 0.0
2017-Dec-10 01:30N 44°10' E 028°40'0 0.0
2017-Dec-10 01:00N 44°10' E 028°40'0 0.0
2017-Dec-10 00:31N 44°10' E 028°40'0 0.0
2017-Dec-10 00:00N 44°10' E 028°40'0 0.0
2017-Dec-09 23:31N 44°10' E 028°40'0 0.0
2017-Dec-09 23:01N 44°10' E 028°40'0 0.0
2017-Dec-09 22:31N 44°10' E 028°40'0 0.0
2017-Dec-09 22:01N 44°10' E 028°40'0 0.0
2017-Dec-09 21:30N 44°10' E 028°40'0 0.0
2017-Dec-09 21:00N 44°10' E 028°40'0 0.0
2017-Dec-09 20:30N 44°10' E 028°40'0 0.0
2017-Dec-09 20:00N 44°10' E 028°40'0 0.0
2017-Dec-09 19:30N 44°10' E 028°40'0 0.0
2017-Dec-09 19:00N 44°10' E 028°40'0 0.0
2017-Dec-09 18:30N 44°10' E 028°40'0 0.0
2017-Dec-09 18:01N 44°10' E 028°40'0 0.0
2017-Dec-09 17:30N 44°10' E 028°40'0 0.0
2017-Dec-09 17:00N 44°10' E 028°40'0 0.0
2017-Dec-09 16:31N 44°10' E 028°40'0 0.0
2017-Dec-09 16:00N 44°10' E 028°40'0 0.0
2017-Dec-09 15:31N 44°10' E 028°40'0 0.0
2017-Dec-09 15:00N 44°10' E 028°40'0 0.0
2017-Dec-09 14:30N 44°10' E 028°40'0 0.0
2017-Dec-09 14:01N 44°10' E 028°40'0 0.0
2017-Dec-09 13:31N 44°10' E 028°40'0 0.0
2017-Dec-09 13:00N 44°10' E 028°40'0 0.0
2017-Dec-09 12:30N 44°10' E 028°40'0 0.0
2017-Dec-09 12:00N 44°10' E 028°40'0 0.0
2017-Dec-09 11:31N 44°10' E 028°40'0 0.0
2017-Dec-09 11:01N 44°10' E 028°40'0 0.0
2017-Dec-09 10:30N 44°10' E 028°40'0 0.0
2017-Dec-09 10:01N 44°10' E 028°40'0 0.0
2017-Dec-09 09:31N 44°10' E 028°40'0 0.0
2017-Dec-09 09:01N 44°10' E 028°40'0 0.0
2017-Dec-09 08:30N 44°10' E 028°40'0 0.0
2017-Dec-09 08:00N 44°10' E 028°40'0 0.0
2017-Dec-09 07:31N 44°10' E 028°40'0 0.0
2017-Dec-09 07:00N 44°10' E 028°40'0 0.0
2017-Dec-09 06:31N 44°10' E 028°40'0 0.0
2017-Dec-09 06:00N 44°10' E 028°40'0 0.0
2017-Dec-09 05:31N 44°10' E 028°40'0 0.0
2017-Dec-09 05:01N 44°10' E 028°40'0 0.0
2017-Dec-09 04:30N 44°10' E 028°40'0 0.0
2017-Dec-09 04:01N 44°10' E 028°40'0 0.0
2017-Dec-09 03:31N 44°10' E 028°40'0 0.0
2017-Dec-09 03:00N 44°10' E 028°40'0 0.0
2017-Dec-09 02:30N 44°10' E 028°40'0 0.0
2017-Dec-09 02:00N 44°10' E 028°40'0 0.0
2017-Dec-09 01:30N 44°10' E 028°40'0 0.0
2017-Dec-09 01:00N 44°10' E 028°40'0 0.0
2017-Dec-09 00:30N 44°10' E 028°40'0 0.0
2017-Dec-09 00:00N 44°10' E 028°40'0 0.0
2017-Dec-08 23:31N 44°10' E 028°40'0 0.0
2017-Dec-08 23:00N 44°10' E 028°40'0 0.0
2017-Dec-08 22:31N 44°10' E 028°40'0 0.0
2017-Dec-08 22:01N 44°10' E 028°40'0 0.0
2017-Dec-08 21:30N 44°10' E 028°40'0 0.0
2017-Dec-08 21:01N 44°10' E 028°40'0 0.0
2017-Dec-08 20:30N 44°10' E 028°40'0 0.0
2017-Dec-08 20:01N 44°10' E 028°40'0 0.0
2017-Dec-08 19:31N 44°10' E 028°40'0 0.0
2017-Dec-08 19:00N 44°10' E 028°40'0 0.0
2017-Dec-08 18:31N 44°10' E 028°40'0 0.0
2017-Dec-08 18:00N 44°10' E 028°40'0 0.0
2017-Dec-08 17:30N 44°10' E 028°40'0 0.0
2017-Dec-08 17:00N 44°10' E 028°40'0 0.0
2017-Dec-08 16:31N 44°10' E 028°40'0 0.0
2017-Dec-08 16:01N 44°10' E 028°40'0 0.0
2017-Dec-08 15:30N 44°10' E 028°40'0 0.0
2017-Dec-08 15:01N 44°10' E 028°40'0 0.0
2017-Dec-08 14:30N 44°10' E 028°40'0 0.0
2017-Dec-08 14:01N 44°10' E 028°40'0 0.0
2017-Dec-08 13:30N 44°10' E 028°40'0 0.0
2017-Dec-08 13:01N 44°10' E 028°40'0 0.0
2017-Dec-08 12:31N 44°10' E 028°40'0 0.0
2017-Dec-08 12:00N 44°10' E 028°40'0 0.0
2017-Dec-08 11:31N 44°10' E 028°40'0 0.0
2017-Dec-08 11:00N 44°10' E 028°40'0 0.0
2017-Dec-08 10:31N 44°10' E 028°40'0 0.0
2017-Dec-08 10:01N 44°10' E 028°40'0 0.0
2017-Dec-08 09:31N 44°10' E 028°40'0 0.0
2017-Dec-08 09:00N 44°10' E 028°40'0 0.0
2017-Dec-08 08:30N 44°10' E 028°40'0 0.0
2017-Dec-08 08:00N 44°10' E 028°40'0 0.0
2017-Dec-08 07:30N 44°10' E 028°40'0 0.0
2017-Dec-08 07:00N 44°10' E 028°40'0 0.0
2017-Dec-08 06:30N 44°10' E 028°40'0 0.0
2017-Dec-08 06:00N 44°10' E 028°40'0 0.0
2017-Dec-08 05:31N 44°10' E 028°40'0 0.0
2017-Dec-08 05:00N 44°10' E 028°40'0 0.0
2017-Dec-08 04:30N 44°10' E 028°40'0 0.0
2017-Dec-08 04:00N 44°10' E 028°40'0 0.0
2017-Dec-08 03:30N 44°10' E 028°40'0 0.0
2017-Dec-08 03:01N 44°10' E 028°40'0 0.0
2017-Dec-08 02:30N 44°10' E 028°40'0 0.0
2017-Dec-08 02:01N 44°10' E 028°40'0 0.0
2017-Dec-08 01:31N 44°10' E 028°40'0 0.0
2017-Dec-08 01:00N 44°10' E 028°40'0 0.0
2017-Dec-08 00:31N 44°10' E 028°40'0 0.0
2017-Dec-08 00:00N 44°10' E 028°40'0 0.0
2017-Dec-07 23:31N 44°10' E 028°40'0 0.0
2017-Dec-07 23:00N 44°10' E 028°40'0 0.0
2017-Dec-07 22:31N 44°10' E 028°40'0 0.0
2017-Dec-07 22:00N 44°10' E 028°40'0 0.0
2017-Dec-07 21:30N 44°10' E 028°40'0 0.0
2017-Dec-07 21:00N 44°10' E 028°40'0 0.0
2017-Dec-07 20:31N 44°10' E 028°40'0 0.0
2017-Dec-07 20:01N 44°10' E 028°40'0 0.0
2017-Dec-07 19:31N 44°10' E 028°40'0 0.0
2017-Dec-07 19:00N 44°10' E 028°40'0 0.0
2017-Dec-07 18:31N 44°10' E 028°40'0 0.0
2017-Dec-07 18:01N 44°10' E 028°40'0 0.0
2017-Dec-07 17:30N 44°10' E 028°40'0 0.0
2017-Dec-07 17:00N 44°10' E 028°40'0 0.0
2017-Dec-07 16:31N 44°10' E 028°40'0 0.0
2017-Dec-07 16:01N 44°10' E 028°40'0 0.0
2017-Dec-07 15:30N 44°10' E 028°40'0 0.0
2017-Dec-07 15:01N 44°10' E 028°40'0 0.0
2017-Dec-07 14:31N 44°10' E 028°40'0 0.0
2017-Dec-07 14:00N 44°10' E 028°40'0 0.0
2017-Dec-07 13:30N 44°10' E 028°40'0 0.0
2017-Dec-07 13:01N 44°10' E 028°40'0 0.0
2017-Dec-07 12:31N 44°10' E 028°40'0 0.0
2017-Dec-07 12:00N 44°10' E 028°40'0 0.0
2017-Dec-07 11:30N 44°10' E 028°40'0 0.0
2017-Dec-07 11:00N 44°10' E 028°40'0 0.0
2017-Dec-07 10:31N 44°10' E 028°40'0 0.0
2017-Dec-07 10:00N 44°10' E 028°40'0 0.0
2017-Dec-07 09:30N 44°10' E 028°40'0 0.0
2017-Dec-07 09:00N 44°10' E 028°40'0 0.0
2017-Dec-07 08:31N 44°10' E 028°40'0 0.0
2017-Dec-07 08:01N 44°10' E 028°40'0 0.0
2017-Dec-07 07:31N 44°10' E 028°40'0 0.0
2017-Dec-07 07:01N 44°10' E 028°40'0 0.0
2017-Dec-07 06:30N 44°10' E 028°40'0 0.0
2017-Dec-07 06:01N 44°10' E 028°40'0 0.0
2017-Dec-07 05:30N 44°10' E 028°40'0 0.0
2017-Dec-07 05:01N 44°10' E 028°40'0 0.0
2017-Dec-07 04:31N 44°10' E 028°40'0 0.0
2017-Dec-07 04:01N 44°10' E 028°40'  
Track history (hours):
 
Tides and Currents Weather Stations Pressure Air Temp Water Temp Dewpoint Dewpoint Depression Visibility Wind Speed Wind Dir Waves Ship Positions

Galati 4

Last reported at 2017-Dec-17 04:01 UTC. Time now 2017-Dec-17 04:18 UTC.
Position N 44°21' E 028°41'.

Length 36 m; draft 2.2 m.

MMSI: 264900046.

Date/timePositionNaut miles runAvg speedWind from/ knotsBaromVisibWave heightAir tempDewpointWater temp
2017-Dec-17 04:01N 44°21' E 028°41'0 0.0
2017-Dec-17 03:30N 44°21' E 028°41'0 0.0
2017-Dec-17 03:00N 44°21' E 028°41'0 0.0
2017-Dec-17 02:30N 44°21' E 028°41'0 0.0
2017-Dec-17 02:01N 44°21' E 028°41'0 0.0
2017-Dec-17 01:30N 44°21' E 028°41'0 0.0
2017-Dec-17 01:01N 44°21' E 028°41'0 0.0
2017-Dec-17 00:30N 44°21' E 028°41'0 0.0
2017-Dec-17 00:00N 44°21' E 028°41'0 0.0
2017-Dec-16 23:31N 44°21' E 028°41'0 0.0
2017-Dec-16 23:00N 44°21' E 028°41'0 0.0
2017-Dec-16 22:30N 44°21' E 028°41'0 0.0
2017-Dec-16 22:00N 44°21' E 028°41'0 0.0
2017-Dec-16 21:30N 44°21' E 028°41'0 0.0
2017-Dec-16 21:01N 44°21' E 028°41'0 0.0
2017-Dec-16 20:30N 44°21' E 028°41'0 0.0
2017-Dec-16 20:00N 44°21' E 028°41'0 0.0
2017-Dec-16 19:30N 44°21' E 028°41'0 0.0
2017-Dec-16 19:00N 44°21' E 028°41'0 0.0
2017-Dec-16 18:30N 44°21' E 028°41'0 0.0
2017-Dec-16 18:00N 44°21' E 028°41'0 0.2
2017-Dec-16 17:30N 44°20' E 028°41'0 0.2
2017-Dec-16 17:00N 44°21' E 028°41'0 0.0
2017-Dec-16 16:30N 44°21' E 028°41'0 0.0
2017-Dec-16 16:01N 44°21' E 028°41'0 0.0
2017-Dec-16 15:31N 44°21' E 028°41'0 0.0
2017-Dec-16 15:00N 44°21' E 028°41'0 0.0
2017-Dec-16 14:31N 44°21' E 028°41'0 0.0
2017-Dec-16 14:01N 44°21' E 028°41'0 0.0
2017-Dec-16 13:31N 44°21' E 028°41'0 0.0
2017-Dec-16 13:00N 44°21' E 028°41'0 0.0
2017-Dec-16 12:31N 44°21' E 028°41'1 1.1
2017-Dec-16 12:01N 44°20' E 028°41'0 0.8
2017-Dec-16 11:30N 44°20' E 028°41'0 0.4
2017-Dec-16 11:00N 44°20' E 028°41'1 1.9
2017-Dec-16 10:30N 44°19' E 028°42'4 7.3
2017-Dec-16 10:01N 44°15' E 028°42'4 7.9
2017-Dec-16 09:30N 44°11' E 028°43'4 7.8
2017-Dec-16 09:01N 44°08' E 028°43'1 2.5
2017-Dec-16 08:31N 44°07' E 028°42'3 6.0
2017-Dec-16 08:00N 44°10' E 028°40'0 0.0
2017-Dec-16 07:31N 44°10' E 028°40'0 0.0
2017-Dec-16 07:00N 44°10' E 028°40'0 0.0
2017-Dec-16 06:31N 44°10' E 028°40'0 0.0
2017-Dec-16 06:01N 44°10' E 028°40'0 0.0
2017-Dec-16 05:31N 44°10' E 028°40'0 0.0
2017-Dec-16 05:00N 44°10' E 028°40'0 0.0
2017-Dec-16 04:30N 44°10' E 028°40'0 0.0
2017-Dec-16 04:00N 44°10' E 028°40'0 0.0
2017-Dec-16 03:31N 44°10' E 028°40'0 0.0
2017-Dec-16 03:01N 44°10' E 028°40'0 0.0
2017-Dec-16 02:30N 44°10' E 028°40'0 0.0
2017-Dec-16 02:00N 44°10' E 028°40'0 0.0
2017-Dec-16 01:31N 44°10' E 028°40'0 0.0
2017-Dec-16 01:00N 44°10' E 028°40'0 0.0
2017-Dec-16 00:31N 44°10' E 028°40'0 0.0
2017-Dec-16 00:00N 44°10' E 028°40'0 0.0
2017-Dec-15 23:31N 44°10' E 028°40'0 0.0
2017-Dec-15 23:01N 44°10' E 028°40'0 0.0
2017-Dec-15 22:31N 44°10' E 028°40'0 0.0
2017-Dec-15 22:00N 44°10' E 028°40'0 0.0
2017-Dec-15 21:30N 44°10' E 028°40'0 0.0
2017-Dec-15 21:00N 44°10' E 028°40'0 0.0
2017-Dec-15 20:30N 44°10' E 028°40'0 0.0
2017-Dec-15 20:01N 44°10' E 028°40'0 0.0
2017-Dec-15 19:30N 44°10' E 028°40'0 0.0
2017-Dec-15 19:00N 44°10' E 028°40'0 0.0
2017-Dec-15 18:30N 44°10' E 028°40'0 0.0
2017-Dec-15 18:01N 44°10' E 028°40'0 0.0
2017-Dec-15 17:31N 44°10' E 028°40'0 0.0
2017-Dec-15 17:00N 44°10' E 028°40'0 0.0
2017-Dec-15 16:30N 44°10' E 028°40'0 0.0
2017-Dec-15 16:00N 44°10' E 028°40'0 0.0
2017-Dec-15 15:31N 44°10' E 028°40'0 0.0
2017-Dec-15 15:01N 44°10' E 028°40'0 0.0
2017-Dec-15 14:31N 44°10' E 028°40'0 0.0
2017-Dec-15 14:00N 44°10' E 028°40'0 0.0
2017-Dec-15 13:31N 44°10' E 028°40'0 0.0
2017-Dec-15 13:01N 44°10' E 028°40'0 0.0
2017-Dec-15 12:31N 44°10' E 028°40'0 0.0
2017-Dec-15 12:00N 44°10' E 028°40'0 0.0
2017-Dec-15 11:31N 44°10' E 028°40'0 0.0
2017-Dec-15 11:01N 44°10' E 028°40'0 0.0
2017-Dec-15 10:30N 44°10' E 028°40'0 0.0
2017-Dec-15 10:01N 44°10' E 028°40'0 0.0
2017-Dec-15 09:30N 44°10' E 028°40'0 0.0
2017-Dec-15 09:01N 44°10' E 028°40'0 0.0
2017-Dec-15 08:30N 44°10' E 028°40'0 0.0
2017-Dec-15 08:00N 44°10' E 028°40'0 0.0
2017-Dec-15 07:30N 44°10' E 028°40'0 0.0
2017-Dec-15 07:01N 44°10' E 028°40'0 0.0
2017-Dec-15 06:31N 44°10' E 028°40'0 0.0
2017-Dec-15 06:01N 44°10' E 028°40'0 0.0
2017-Dec-15 05:30N 44°10' E 028°40'0 0.0
2017-Dec-15 05:01N 44°10' E 028°40'0 0.0
2017-Dec-15 04:30N 44°10' E 028°40'0 0.0
2017-Dec-15 04:00N 44°10' E 028°40'0 0.0
2017-Dec-15 02:30N 44°10' E 028°40'0 0.0
2017-Dec-15 01:01N 44°10' E 028°40'0 0.0
2017-Dec-15 00:31N 44°10' E 028°40'0 0.0
2017-Dec-14 18:30N 44°10' E 028°40'0 0.0
2017-Dec-14 18:01N 44°10' E 028°40'0 0.0
2017-Dec-14 17:30N 44°10' E 028°40'0 0.0
2017-Dec-14 17:00N 44°10' E 028°40'0 0.0
2017-Dec-14 16:30N 44°10' E 028°40'0 0.0
2017-Dec-14 16:01N 44°10' E 028°40'0 0.0
2017-Dec-14 15:01N 44°10' E 028°40'0 0.0
2017-Dec-14 14:30N 44°10' E 028°40'0 0.0
2017-Dec-14 14:01N 44°10' E 028°40'0 0.0
2017-Dec-14 13:30N 44°10' E 028°40'0 0.0
2017-Dec-14 13:00N 44°10' E 028°40'0 0.0
2017-Dec-14 12:31N 44°10' E 028°40'0 0.0
2017-Dec-14 12:00N 44°10' E 028°40'0 0.0
2017-Dec-14 11:30N 44°10' E 028°40'0 0.0
2017-Dec-14 11:00N 44°10' E 028°40'0 0.0
2017-Dec-14 10:31N 44°10' E 028°40'0 0.0
2017-Dec-14 10:01N 44°10' E 028°40'0 0.0
2017-Dec-14 09:31N 44°10' E 028°40'0 0.0
2017-Dec-14 09:00N 44°10' E 028°40'0 0.0
2017-Dec-14 08:31N 44°10' E 028°40'0 0.0
2017-Dec-14 08:00N 44°10' E 028°40'0 0.0
2017-Dec-14 07:31N 44°10' E 028°40'0 0.0
2017-Dec-14 07:00N 44°10' E 028°40'0 0.0
2017-Dec-14 06:31N 44°10' E 028°40'0 0.0
2017-Dec-14 06:01N 44°10' E 028°40'0 0.0
2017-Dec-14 05:31N 44°10' E 028°40'0 0.0
2017-Dec-14 05:00N 44°10' E 028°40'0 0.0
2017-Dec-14 04:31N 44°10' E 028°40'0 0.0
2017-Dec-14 04:00N 44°10' E 028°40'0 0.0
2017-Dec-14 03:30N 44°10' E 028°40'0 0.0
2017-Dec-14 03:00N 44°10' E 028°40'0 0.0
2017-Dec-14 02:30N 44°10' E 028°40'0 0.0
2017-Dec-14 02:01N 44°10' E 028°40'0 0.0
2017-Dec-14 01:30N 44°10' E 028°40'0 0.0
2017-Dec-14 01:01N 44°10' E 028°40'0 0.0
2017-Dec-14 00:30N 44°10' E 028°40'0 0.0
2017-Dec-14 00:00N 44°10' E 028°40'0 0.0
2017-Dec-13 23:30N 44°10' E 028°40'0 0.0
2017-Dec-13 23:00N 44°10' E 028°40'0 0.0
2017-Dec-13 22:30N 44°10' E 028°40'0 0.0
2017-Dec-13 22:01N 44°10' E 028°40'0 0.0
2017-Dec-13 21:31N 44°10' E 028°40'0 0.0
2017-Dec-13 21:00N 44°10' E 028°40'0 0.0
2017-Dec-13 20:31N 44°10' E 028°40'0 0.0
2017-Dec-13 20:00N 44°10' E 028°40'0 0.0
2017-Dec-13 19:31N 44°10' E 028°40'0 0.0
2017-Dec-13 19:00N 44°10' E 028°40'0 0.0
2017-Dec-13 18:31N 44°10' E 028°40'0 0.0
2017-Dec-13 18:00N 44°10' E 028°40'0 0.0
2017-Dec-13 17:30N 44°10' E 028°40'0 0.0
2017-Dec-13 17:00N 44°10' E 028°40'0 0.0
2017-Dec-13 16:31N 44°10' E 028°40'0 0.0
2017-Dec-13 16:01N 44°10' E 028°40'0 0.0
2017-Dec-13 15:31N 44°10' E 028°40'0 0.0
2017-Dec-13 15:00N 44°10' E 028°40'0 0.0
2017-Dec-13 14:30N 44°10' E 028°40'0 0.0
2017-Dec-13 14:00N 44°10' E 028°40'0 0.0
2017-Dec-13 13:30N 44°10' E 028°40'0 0.0
2017-Dec-13 13:01N 44°10' E 028°40'0 0.0
2017-Dec-13 12:30N 44°10' E 028°40'0 0.0
2017-Dec-13 12:01N 44°10' E 028°40'0 0.0
2017-Dec-13 11:31N 44°10' E 028°40'0 0.0
2017-Dec-13 11:01N 44°10' E 028°40'0 0.0
2017-Dec-13 10:30N 44°10' E 028°40'0 0.0
2017-Dec-13 10:01N 44°10' E 028°40'0 0.0
2017-Dec-13 09:30N 44°10' E 028°40'0 0.0
2017-Dec-13 09:00N 44°10' E 028°40'0 0.0
2017-Dec-13 08:31N 44°10' E 028°40'0 0.0
2017-Dec-13 08:00N 44°10' E 028°40'0 0.0
2017-Dec-13 06:55N 44°10' E 028°40'0 0.0
2017-Dec-13 06:30N 44°10' E 028°40'0 0.0
2017-Dec-13 06:00N 44°10' E 028°40'0 0.0
2017-Dec-13 05:30N 44°10' E 028°40'0 0.0
2017-Dec-13 05:00N 44°10' E 028°40'0 0.0
2017-Dec-13 04:30N 44°10' E 028°40'0 0.0
2017-Dec-13 04:00N 44°10' E 028°40'0 0.0
2017-Dec-13 03:30N 44°10' E 028°40'0 0.0
2017-Dec-13 03:00N 44°10' E 028°40'0 0.0
2017-Dec-13 02:30N 44°10' E 028°40'0 0.0
2017-Dec-13 02:00N 44°10' E 028°40'0 0.0
2017-Dec-13 01:30N 44°10' E 028°40'0 0.0
2017-Dec-13 01:00N 44°10' E 028°40'0 0.0
2017-Dec-13 00:30N 44°10' E 028°40'0 0.0
2017-Dec-13 00:00N 44°10' E 028°40'0 0.0
2017-Dec-12 23:30N 44°10' E 028°40'0 0.0
2017-Dec-12 23:00N 44°10' E 028°40'0 0.0
2017-Dec-12 22:30N 44°10' E 028°40'0 0.0
2017-Dec-12 22:00N 44°10' E 028°40'0 0.0
2017-Dec-12 21:30N 44°10' E 028°40'0 0.0
2017-Dec-12 21:00N 44°10' E 028°40'0 0.0
2017-Dec-12 20:30N 44°10' E 028°40'0 0.0
2017-Dec-12 20:00N 44°10' E 028°40'0 0.0
2017-Dec-12 19:30N 44°10' E 028°40'0 0.0
2017-Dec-12 19:00N 44°10' E 028°40'0 0.0
2017-Dec-12 18:30N 44°10' E 028°40'0 0.0
2017-Dec-12 18:00N 44°10' E 028°40'0 0.0
2017-Dec-12 17:30N 44°10' E 028°40'0 0.0
2017-Dec-12 17:00N 44°10' E 028°40'0 0.0
2017-Dec-12 16:30N 44°10' E 028°40'0 0.0
2017-Dec-12 16:00N 44°10' E 028°40'0 0.0
2017-Dec-12 15:30N 44°10' E 028°40'0 0.0
2017-Dec-12 15:00N 44°10' E 028°40'0 0.0
2017-Dec-12 14:30N 44°10' E 028°40'0 0.0
2017-Dec-12 14:00N 44°10' E 028°40'0 0.0
2017-Dec-12 13:30N 44°10' E 028°40'0 0.0
2017-Dec-12 13:00N 44°10' E 028°40'0 0.0
2017-Dec-12 12:30N 44°10' E 028°40'0 0.0
2017-Dec-12 12:00N 44°10' E 028°40'0 0.0
2017-Dec-12 11:30N 44°10' E 028°40'0 0.0
2017-Dec-12 11:00N 44°10' E 028°40'0 0.0
2017-Dec-12 10:30N 44°10' E 028°40'0 0.0
2017-Dec-12 10:00N 44°10' E 028°40'0 0.0
2017-Dec-12 09:30N 44°10' E 028°40'0 0.0
2017-Dec-12 09:00N 44°10' E 028°40'0 0.0
2017-Dec-12 08:30N 44°10' E 028°40'0 0.0
2017-Dec-12 08:00N 44°10' E 028°40'0 0.0
2017-Dec-12 07:30N 44°10' E 028°40'0 0.0
2017-Dec-12 07:00N 44°10' E 028°40'0 0.0
2017-Dec-12 06:30N 44°10' E 028°40'0 0.0
2017-Dec-12 06:00N 44°10' E 028°40'0 0.0
2017-Dec-12 05:30N 44°10' E 028°40'0 0.0
2017-Dec-12 05:00N 44°10' E 028°40'0 0.0
2017-Dec-12 04:30N 44°10' E 028°40'0 0.0
2017-Dec-12 04:00N 44°10' E 028°40'0 0.0
2017-Dec-12 03:30N 44°10' E 028°40'0 0.0
2017-Dec-12 03:00N 44°10' E 028°40'0 0.0
2017-Dec-12 02:30N 44°10' E 028°40'0 0.0
2017-Dec-12 02:00N 44°10' E 028°40'0 0.0
2017-Dec-12 01:30N 44°10' E 028°40'0 0.0
2017-Dec-12 01:00N 44°10' E 028°40'0 0.0
2017-Dec-12 00:30N 44°10' E 028°40'0 0.0
2017-Dec-12 00:00N 44°10' E 028°40'0 0.0
2017-Dec-11 23:30N 44°10' E 028°40'0 0.0
2017-Dec-11 23:00N 44°10' E 028°40'0 0.0
2017-Dec-11 22:30N 44°10' E 028°40'0 0.0
2017-Dec-11 22:00N 44°10' E 028°40'0 0.0
2017-Dec-11 21:30N 44°10' E 028°40'0 0.0
2017-Dec-11 21:00N 44°10' E 028°40'0 0.0
2017-Dec-11 20:30N 44°10' E 028°40'0 0.0
2017-Dec-11 20:00N 44°10' E 028°40'0 0.0
2017-Dec-11 19:30N 44°10' E 028°40'0 0.0
2017-Dec-11 19:00N 44°10' E 028°40'0 0.0
2017-Dec-11 18:30N 44°10' E 028°40'0 0.0
2017-Dec-11 18:00N 44°10' E 028°40'0 0.0
2017-Dec-11 17:30N 44°10' E 028°40'0 0.0
2017-Dec-11 17:00N 44°10' E 028°40'0 0.0
2017-Dec-11 16:30N 44°10' E 028°40'0 0.0
2017-Dec-11 16:00N 44°10' E 028°40'0 0.0
2017-Dec-11 15:30N 44°10' E 028°40'0 0.0
2017-Dec-11 15:00N 44°10' E 028°40'0 0.0
2017-Dec-11 14:30N 44°10' E 028°40'0 0.0
2017-Dec-11 14:00N 44°10' E 028°40'0 0.0
2017-Dec-11 13:30N 44°10' E 028°40'0 0.0
2017-Dec-11 12:43N 44°10' E 028°40'0 0.0
2017-Dec-11 12:31N 44°10' E 028°40'0 0.0
2017-Dec-11 12:00N 44°10' E 028°40'0 0.0
2017-Dec-11 11:31N 44°10' E 028°40'0 0.0
2017-Dec-11 11:00N 44°10' E 028°40'0 0.0
2017-Dec-11 10:30N 44°10' E 028°40'0 0.0
2017-Dec-11 10:01N 44°10' E 028°40'0 0.0
2017-Dec-11 09:30N 44°10' E 028°40'0 0.0
2017-Dec-11 09:00N 44°10' E 028°40'0 0.0
2017-Dec-11 08:30N 44°10' E 028°40'0 0.0
2017-Dec-11 08:00N 44°10' E 028°40'0 0.0
2017-Dec-11 07:31N 44°10' E 028°40'0 0.0
2017-Dec-11 07:01N 44°10' E 028°40'0 0.0
2017-Dec-11 06:30N 44°10' E 028°40'0 0.0
2017-Dec-11 06:01N 44°10' E 028°40'0 0.0
2017-Dec-11 05:31N 44°10' E 028°40'0 0.0
2017-Dec-11 05:00N 44°10' E 028°40'0 0.0
2017-Dec-11 04:31N 44°10' E 028°40'0 0.0
2017-Dec-11 04:00N 44°10' E 028°40'0 0.0
2017-Dec-11 03:30N 44°10' E 028°40'0 0.0
2017-Dec-11 03:01N 44°10' E 028°40'0 0.0
2017-Dec-11 02:31N 44°10' E 028°40'0 0.0
2017-Dec-11 02:00N 44°10' E 028°40'0 0.0
2017-Dec-11 01:30N 44°10' E 028°40'0 0.0
2017-Dec-11 01:01N 44°10' E 028°40'0 0.0
2017-Dec-11 00:31N 44°10' E 028°40'0 0.0
2017-Dec-11 00:01N 44°10' E 028°40'0 0.0
2017-Dec-10 23:30N 44°10' E 028°40'0 0.0
2017-Dec-10 23:01N 44°10' E 028°40'0 0.0
2017-Dec-10 22:31N 44°10' E 028°40'0 0.0
2017-Dec-10 22:01N 44°10' E 028°40'0 0.0
2017-Dec-10 21:31N 44°10' E 028°40'0 0.0
2017-Dec-10 21:00N 44°10' E 028°40'0 0.0
2017-Dec-10 20:31N 44°10' E 028°40'0 0.0
2017-Dec-10 20:01N 44°10' E 028°40'0 0.0
2017-Dec-10 19:30N 44°10' E 028°40'0 0.0
2017-Dec-10 19:01N 44°10' E 028°40'0 0.0
2017-Dec-10 18:30N 44°10' E 028°40'0 0.0
2017-Dec-10 18:00N 44°10' E 028°40'0 0.0
2017-Dec-10 17:30N 44°10' E 028°40'0 0.0
2017-Dec-10 17:00N 44°10' E 028°40'0 0.0
2017-Dec-10 16:31N 44°10' E 028°40'0 0.0
2017-Dec-10 16:00N 44°10' E 028°40'0 0.0
2017-Dec-10 15:30N 44°10' E 028°40'0 0.0
2017-Dec-10 15:00N 44°10' E 028°40'0 0.0
2017-Dec-10 14:31N 44°10' E 028°40'0 0.0
2017-Dec-10 14:00N 44°10' E 028°40'0 0.0
2017-Dec-10 13:31N 44°10' E 028°40'0 0.0
2017-Dec-10 13:01N 44°10' E 028°40'0 0.0
2017-Dec-10 12:30N 44°10' E 028°40'0 0.0
2017-Dec-10 12:00N 44°10' E 028°40'0 0.0
2017-Dec-10 11:31N 44°10' E 028°40'0 0.0
2017-Dec-10 11:01N 44°10' E 028°40'0 0.0
2017-Dec-10 10:30N 44°10' E 028°40'0 0.0
2017-Dec-10 10:00N 44°10' E 028°40'0 0.0
2017-Dec-10 09:30N 44°10' E 028°40'0 0.0
2017-Dec-10 09:00N 44°10' E 028°40'0 0.0
2017-Dec-10 08:31N 44°10' E 028°40'0 0.0
2017-Dec-10 08:00N 44°10' E 028°40'0 0.0
2017-Dec-10 07:30N 44°10' E 028°40'0 0.0
2017-Dec-10 07:00N 44°10' E 028°40'0 0.0
2017-Dec-10 06:31N 44°10' E 028°40'0 0.0
2017-Dec-10 06:01N 44°10' E 028°40'0 0.0
2017-Dec-10 05:31N 44°10' E 028°40'0 0.0
2017-Dec-10 05:00N 44°10' E 028°40'0 0.0
2017-Dec-10 04:31N 44°10' E 028°40'0 0.0
2017-Dec-10 04:01N 44°10' E 028°40'0 0.0
2017-Dec-10 03:31N 44°10' E 028°40'0 0.0
2017-Dec-10 03:01N 44°10' E 028°40'0 0.0
2017-Dec-10 02:31N 44°10' E 028°40'0 0.0
2017-Dec-10 02:00N 44°10' E 028°40'0 0.0
2017-Dec-10 01:30N 44°10' E 028°40'0 0.0
2017-Dec-10 01:00N 44°10' E 028°40'0 0.0
2017-Dec-10 00:31N 44°10' E 028°40'0 0.0
2017-Dec-10 00:00N 44°10' E 028°40'0 0.0
2017-Dec-09 23:31N 44°10' E 028°40'0 0.0
2017-Dec-09 23:01N 44°10' E 028°40'0 0.0
2017-Dec-09 22:31N 44°10' E 028°40'0 0.0
2017-Dec-09 22:01N 44°10' E 028°40'0 0.0
2017-Dec-09 21:30N 44°10' E 028°40'0 0.0
2017-Dec-09 21:00N 44°10' E 028°40'0 0.0
2017-Dec-09 20:30N 44°10' E 028°40'0 0.0
2017-Dec-09 20:00N 44°10' E 028°40'0 0.0
2017-Dec-09 19:30N 44°10' E 028°40'0 0.0
2017-Dec-09 19:00N 44°10' E 028°40'0 0.0
2017-Dec-09 18:30N 44°10' E 028°40'0 0.0
2017-Dec-09 18:01N 44°10' E 028°40'0 0.0
2017-Dec-09 17:30N 44°10' E 028°40'0 0.0
2017-Dec-09 17:00N 44°10' E 028°40'0 0.0
2017-Dec-09 16:31N 44°10' E 028°40'0 0.0
2017-Dec-09 16:00N 44°10' E 028°40'0 0.0
2017-Dec-09 15:31N 44°10' E 028°40'0 0.0
2017-Dec-09 15:00N 44°10' E 028°40'0 0.0
2017-Dec-09 14:30N 44°10' E 028°40'0 0.0
2017-Dec-09 14:01N 44°10' E 028°40'0 0.0
2017-Dec-09 13:31N 44°10' E 028°40'0 0.0
2017-Dec-09 13:00N 44°10' E 028°40'0 0.0
2017-Dec-09 12:30N 44°10' E 028°40'0 0.0
2017-Dec-09 12:00N 44°10' E 028°40'0 0.0
2017-Dec-09 11:31N 44°10' E 028°40'0 0.0
2017-Dec-09 11:01N 44°10' E 028°40'0 0.0
2017-Dec-09 10:30N 44°10' E 028°40'0 0.0
2017-Dec-09 10:01N 44°10' E 028°40'0 0.0
2017-Dec-09 09:31N 44°10' E 028°40'0 0.0
2017-Dec-09 09:01N 44°10' E 028°40'0 0.0
2017-Dec-09 08:30N 44°10' E 028°40'0 0.0
2017-Dec-09 08:00N 44°10' E 028°40'0 0.0
2017-Dec-09 07:31N 44°10' E 028°40'0 0.0
2017-Dec-09 07:00N 44°10' E 028°40'0 0.0
2017-Dec-09 06:31N 44°10' E 028°40'0 0.0
2017-Dec-09 06:00N 44°10' E 028°40'0 0.0
2017-Dec-09 05:31N 44°10' E 028°40'0 0.0
2017-Dec-09 05:01N 44°10' E 028°40'0 0.0
2017-Dec-09 04:30N 44°10' E 028°40'0 0.0
2017-Dec-09 04:01N 44°10' E 028°40'0 0.0
2017-Dec-09 03:31N 44°10' E 028°40'0 0.0
2017-Dec-09 03:00N 44°10' E 028°40'0 0.0
2017-Dec-09 02:30N 44°10' E 028°40'0 0.0
2017-Dec-09 02:00N 44°10' E 028°40'0 0.0
2017-Dec-09 01:30N 44°10' E 028°40'0 0.0
2017-Dec-09 01:00N 44°10' E 028°40'0 0.0
2017-Dec-09 00:30N 44°10' E 028°40'0 0.0
2017-Dec-09 00:00N 44°10' E 028°40'0 0.0
2017-Dec-08 23:31N 44°10' E 028°40'0 0.0
2017-Dec-08 23:00N 44°10' E 028°40'0 0.0
2017-Dec-08 22:31N 44°10' E 028°40'0 0.0
2017-Dec-08 22:01N 44°10' E 028°40'0 0.0
2017-Dec-08 21:30N 44°10' E 028°40'0 0.0
2017-Dec-08 21:01N 44°10' E 028°40'0 0.0
2017-Dec-08 20:30N 44°10' E 028°40'0 0.0
2017-Dec-08 20:01N 44°10' E 028°40'0 0.0
2017-Dec-08 19:31N 44°10' E 028°40'0 0.0
2017-Dec-08 19:00N 44°10' E 028°40'0 0.0
2017-Dec-08 18:31N 44°10' E 028°40'0 0.0
2017-Dec-08 18:00N 44°10' E 028°40'0 0.0
2017-Dec-08 17:30N 44°10' E 028°40'0 0.0
2017-Dec-08 17:00N 44°10' E 028°40'0 0.0
2017-Dec-08 16:31N 44°10' E 028°40'0 0.0
2017-Dec-08 16:01N 44°10' E 028°40'0 0.0
2017-Dec-08 15:30N 44°10' E 028°40'0 0.0
2017-Dec-08 15:01N 44°10' E 028°40'0 0.0
2017-Dec-08 14:30N 44°10' E 028°40'0 0.0
2017-Dec-08 14:01N 44°10' E 028°40'0 0.0
2017-Dec-08 13:30N 44°10' E 028°40'0 0.0
2017-Dec-08 13:01N 44°10' E 028°40'0 0.0
2017-Dec-08 12:31N 44°10' E 028°40'0 0.0
2017-Dec-08 12:00N 44°10' E 028°40'0 0.0
2017-Dec-08 11:31N 44°10' E 028°40'0 0.0
2017-Dec-08 11:00N 44°10' E 028°40'0 0.0
2017-Dec-08 10:31N 44°10' E 028°40'0 0.0
2017-Dec-08 10:01N 44°10' E 028°40'0 0.0
2017-Dec-08 09:31N 44°10' E 028°40'0 0.0
2017-Dec-08 09:00N 44°10' E 028°40'0 0.0
2017-Dec-08 08:30N 44°10' E 028°40'0 0.0
2017-Dec-08 08:00N 44°10' E 028°40'0 0.0
2017-Dec-08 07:30N 44°10' E 028°40'0 0.0
2017-Dec-08 07:00N 44°10' E 028°40'0 0.0
2017-Dec-08 06:30N 44°10' E 028°40'0 0.0
2017-Dec-08 06:00N 44°10' E 028°40'0 0.0
2017-Dec-08 05:31N 44°10' E 028°40'0 0.0
2017-Dec-08 05:00N 44°10' E 028°40'0 0.0
2017-Dec-08 04:30N 44°10' E 028°40'0 0.0
2017-Dec-08 04:00N 44°10' E 028°40'0 0.0
2017-Dec-08 03:30N 44°10' E 028°40'0 0.0
2017-Dec-08 03:01N 44°10' E 028°40'0 0.0
2017-Dec-08 02:30N 44°10' E 028°40'0 0.0
2017-Dec-08 02:01N 44°10' E 028°40'0 0.0
2017-Dec-08 01:31N 44°10' E 028°40'0 0.0
2017-Dec-08 01:00N 44°10' E 028°40'0 0.0
2017-Dec-08 00:31N 44°10' E 028°40'0 0.0
2017-Dec-08 00:00N 44°10' E 028°40'0 0.0
2017-Dec-07 23:31N 44°10' E 028°40'0 0.0
2017-Dec-07 23:00N 44°10' E 028°40'0 0.0
2017-Dec-07 22:31N 44°10' E 028°40'0 0.0
2017-Dec-07 22:00N 44°10' E 028°40'0 0.0
2017-Dec-07 21:30N 44°10' E 028°40'0 0.0
2017-Dec-07 21:00N 44°10' E 028°40'0 0.0
2017-Dec-07 20:31N 44°10' E 028°40'0 0.0
2017-Dec-07 20:01N 44°10' E 028°40'0 0.0
2017-Dec-07 19:31N 44°10' E 028°40'0 0.0
2017-Dec-07 19:00N 44°10' E 028°40'0 0.0
2017-Dec-07 18:31N 44°10' E 028°40'0 0.0
2017-Dec-07 18:01N 44°10' E 028°40'0 0.0
2017-Dec-07 17:30N 44°10' E 028°40'0 0.0
2017-Dec-07 17:00N 44°10' E 028°40'0 0.0
2017-Dec-07 16:31N 44°10' E 028°40'0 0.0
2017-Dec-07 16:01N 44°10' E 028°40'0 0.0
2017-Dec-07 15:30N 44°10' E 028°40'0 0.0
2017-Dec-07 15:01N 44°10' E 028°40'0 0.0
2017-Dec-07 14:31N 44°10' E 028°40'0 0.0
2017-Dec-07 14:00N 44°10' E 028°40'0 0.0
2017-Dec-07 13:30N 44°10' E 028°40'0 0.0
2017-Dec-07 13:01N 44°10' E 028°40'0 0.0
2017-Dec-07 12:31N 44°10' E 028°40'0 0.0
2017-Dec-07 12:00N 44°10' E 028°40'0 0.0
2017-Dec-07 11:30N 44°10' E 028°40'0 0.0
2017-Dec-07 11:00N 44°10' E 028°40'0 0.0
2017-Dec-07 10:31N 44°10' E 028°40'0 0.0
2017-Dec-07 10:00N 44°10' E 028°40'0 0.0
2017-Dec-07 09:30N 44°10' E 028°40'0 0.0
2017-Dec-07 09:00N 44°10' E 028°40'0 0.0
2017-Dec-07 08:31N 44°10' E 028°40'0 0.0
2017-Dec-07 08:01N 44°10' E 028°40'0 0.0
2017-Dec-07 07:31N 44°10' E 028°40'0 0.0
2017-Dec-07 07:01N 44°10' E 028°40'0 0.0
2017-Dec-07 06:30N 44°10' E 028°40'0 0.0
2017-Dec-07 06:01N 44°10' E 028°40'0 0.0
2017-Dec-07 05:30N 44°10' E 028°40'0 0.0
2017-Dec-07 05:01N 44°10' E 028°40'0 0.0
2017-Dec-07 04:31N 44°10' E 028°40'0 0.0
2017-Dec-07 04:01N 44°10' E 028°40'  

Dump ship's entire track history